RoSS Sea — WDE3122 — position and weather

sailwx.info

Track history (hours):
 
Tides and Currents Weather Stations Pressure Air Temp Water Temp Dewpoint Dewpoint Depression Visibility Wind Speed Wind Dir Waves Ship Positions

RoSS Sea

Owner: Kirby Inland Marine, LP, Houston, TX. More information available from US FCC via Universal Licensing System and Coast Guard Vessel Documentation Center.

Last reported at 2016-Aug-27 01:28 UTC. Time now 2016-Aug-27 11:44 UTC.
Position N 40°36' W 074°12'.

Length 30 m; draft 5 m.

Type: Towing. MMSI: 367334360.

Date/timePositionNaut miles runAvg speedWind from/ knotsBaromVisibWave heightAir tempDewpointWater temp
2016-Aug-27 01:28N 40°36' W 074°12'6 6.2
2016-Aug-27 00:33N 40°39' W 074°06'3 0.3
2016-Aug-26 12:20N 40°39' W 074°10'4 5.7
2016-Aug-26 11:33N 40°39' W 074°04'1 0.8
2016-Aug-26 10:34N 40°39' W 074°05'2 2.0
2016-Aug-26 09:33N 40°39' W 074°08'2 0.2
2016-Aug-25 23:30N 40°38' W 074°10'5 5.7
2016-Aug-25 22:33N 40°39' W 074°03'0 0.1
2016-Aug-25 21:33N 40°39' W 074°03'0 0.0
2016-Aug-25 20:33N 40°39' W 074°03'0 0.1
2016-Aug-25 19:30N 40°39' W 074°03'0 0.0
2016-Aug-25 18:33N 40°39' W 074°03'0 0.0
2016-Aug-25 17:33N 40°39' W 074°03'0 0.0
2016-Aug-25 16:33N 40°39' W 074°03'0 0.0
2016-Aug-25 15:33N 40°39' W 074°03'0 0.1
2016-Aug-25 14:33N 40°39' W 074°03'0 0.1
2016-Aug-25 13:33N 40°39' W 074°03'0 0.0
2016-Aug-25 12:33N 40°39' W 074°03'0 0.0
2016-Aug-25 11:33N 40°39' W 074°03'0 0.0
2016-Aug-25 10:30N 40°39' W 074°03'0 0.1
2016-Aug-25 09:33N 40°39' W 074°03'0 0.1
2016-Aug-25 08:27N 40°39' W 074°03'0 0.1
2016-Aug-25 07:33N 40°39' W 074°03'0 0.0
2016-Aug-25 06:33N 40°39' W 074°03'0 0.0
2016-Aug-25 04:33N 40°39' W 074°03'0 0.0
2016-Aug-25 03:33N 40°39' W 074°03'4 4.3
2016-Aug-25 02:34N 40°42' W 073°59'5 0.3
2016-Aug-24 07:15N 40°47' W 073°55'3 5.0
2016-Aug-24 06:33N 40°44' W 073°58'5 2.6
2016-Aug-24 04:33N 40°40' W 074°02'0 0.0
2016-Aug-24 03:33N 40°40' W 074°02'0 0.0
2016-Aug-24 02:33N 40°40' W 074°02'0 0.1
2016-Aug-24 01:33N 40°40' W 074°02'2 1.7
2016-Aug-24 00:33N 40°39' W 074°04'4 0.2
2016-Aug-22 23:31N 40°39' W 074°10'0 0.3
2016-Aug-22 22:18N 40°39' W 074°10'4 5.5
2016-Aug-22 21:30N 40°40' W 074°04'0 0.0
2016-Aug-22 20:33N 40°40' W 074°04'0 0.0
2016-Aug-22 19:33N 40°40' W 074°04'0 0.0
2016-Aug-22 18:33N 40°40' W 074°04'0 0.0
2016-Aug-22 17:33N 40°40' W 074°04'1 0.6
2016-Aug-22 16:33N 40°39' W 074°04'4 4.2
2016-Aug-22 15:33N 40°38' W 074°10'0 0.0
2016-Aug-22 14:33N 40°38' W 074°10'0 0.0
2016-Aug-22 13:32N 40°39' W 074°10'0 0.0
2016-Aug-22 08:19N 40°39' W 074°10'0 0.0
2016-Aug-22 07:33N 40°39' W 074°10'0 0.0
2016-Aug-22 06:20N 40°39' W 074°10'0 0.0
2016-Aug-22 05:25N 40°39' W 074°10'0 0.0
2016-Aug-22 04:22N 40°39' W 074°10'4 5.1
2016-Aug-22 03:30N 40°40' W 074°04'0 0.0
2016-Aug-22 02:30N 40°40' W 074°04'0 0.0
2016-Aug-22 01:33N 40°40' W 074°04'0 0.0
2016-Aug-22 00:30N 40°40' W 074°04'0 0.0
2016-Aug-21 23:33N 40°40' W 074°04'0 0.0
2016-Aug-21 22:33N 40°40' W 074°04'1 0.7
2016-Aug-21 20:32N 40°39' W 074°06'3 0.5
2016-Aug-21 14:18N 40°39' W 074°10'0 0.0
2016-Aug-21 02:27N 40°39' W 074°10'1 0.6
2016-Aug-21 01:33N 40°39' W 074°09'1 0.5
2016-Aug-21 00:24N 40°38' W 074°10'0 0.0
2016-Aug-20 23:33N 40°38' W 074°10'0 0.0
2016-Aug-20 22:33N 40°38' W 074°10'0 0.0
2016-Aug-20 21:21N 40°38' W 074°10'0 0.0
2016-Aug-20 20:21N 40°38' W 074°10'0 0.0
2016-Aug-20 19:21N 40°38' W 074°10'0 0.0
2016-Aug-20 18:27N 40°38' W 074°10'0 0.0
2016-Aug-20 17:33N 40°38' W 074°10'0 0.0
2016-Aug-20 16:33N 40°38' W 074°10'0 0.0
2016-Aug-20 13:06N 40°38' W 074°10'0 0.0
2016-Aug-20 09:33N 40°38' W 074°10'0 0.0
2016-Aug-20 08:33N 40°38' W 074°10'0 0.0
2016-Aug-20 07:33N 40°38' W 074°10'0 0.0
2016-Aug-20 06:33N 40°38' W 074°10'0 0.0
2016-Aug-20 05:27N 40°38' W 074°10'0 0.0
2016-Aug-20 04:27N 40°38' W 074°10'0 0.0
2016-Aug-20 03:30N 40°38' W 074°10'0 0.0
2016-Aug-20 02:12N 40°38' W 074°10'0 0.0
2016-Aug-20 01:15N 40°38' W 074°10'0 0.0
2016-Aug-20 00:33N 40°38' W 074°10'0 0.0
2016-Aug-19 23:33N 40°38' W 074°10'0 0.0
2016-Aug-19 22:33N 40°38' W 074°10'0 0.4
2016-Aug-19 21:33N 40°39' W 074°10'2 0.6
2016-Aug-19 17:22N 40°37' W 074°12'3 0.9
2016-Aug-19 14:30N 40°38' W 074°10'3 2.9
2016-Aug-19 13:32N 40°39' W 074°06'0 0.3
2016-Aug-19 12:31N 40°39' W 074°06'0 0.0
2016-Aug-19 11:31N 40°39' W 074°06'0 0.0
2016-Aug-19 10:31N 40°39' W 074°06'0 0.3
2016-Aug-19 09:32N 40°39' W 074°06'0 0.3
2016-Aug-19 08:32N 40°39' W 074°06'0 0.0
2016-Aug-19 07:14N 40°39' W 074°06'0 0.0
2016-Aug-19 03:33N 40°39' W 074°06'0 0.0
2016-Aug-19 01:11N 40°39' W 074°06'0 0.1
2016-Aug-19 00:34N 40°39' W 074°06'0 0.2
2016-Aug-18 23:24N 40°39' W 074°06'3 3.3
2016-Aug-18 22:33N 40°39' W 074°02'0 0.2
2016-Aug-18 21:33N 40°40' W 074°02'0 0.2
2016-Aug-18 20:33N 40°39' W 074°02'0 0.0
2016-Aug-18 19:33N 40°39' W 074°02'0 0.0
2016-Aug-18 18:33N 40°39' W 074°02'0 0.0
2016-Aug-18 17:33N 40°39' W 074°02'1 1.4
2016-Aug-18 16:33N 40°39' W 074°04'6 0.5
2016-Aug-18 02:12N 40°37' W 074°12'4 6.2
2016-Aug-18 01:33N 40°39' W 074°08'6 6.0
2016-Aug-18 00:34N 40°42' W 074°02'  
Track history (hours):
 
Tides and Currents Weather Stations Pressure Air Temp Water Temp Dewpoint Dewpoint Depression Visibility Wind Speed Wind Dir Waves Ship Positions

RoSS Sea

Owner: Kirby Inland Marine, LP, Houston, TX. More information available from US FCC via Universal Licensing System and Coast Guard Vessel Documentation Center.

Last reported at 2016-Aug-27 01:28 UTC. Time now 2016-Aug-27 11:44 UTC.
Position N 40°36' W 074°12'.

Length 30 m; draft 5 m.

Type: Towing. MMSI: 367334360.

Date/timePositionNaut miles runAvg speedWind from/ knotsBaromVisibWave heightAir tempDewpointWater temp
2016-Aug-27 01:28N 40°36' W 074°12'6 6.2
2016-Aug-27 00:33N 40°39' W 074°06'3 0.3
2016-Aug-26 12:20N 40°39' W 074°10'4 5.7
2016-Aug-26 11:33N 40°39' W 074°04'1 0.8
2016-Aug-26 10:34N 40°39' W 074°05'2 2.0
2016-Aug-26 09:33N 40°39' W 074°08'2 0.2
2016-Aug-25 23:30N 40°38' W 074°10'5 5.7
2016-Aug-25 22:33N 40°39' W 074°03'0 0.1
2016-Aug-25 21:33N 40°39' W 074°03'0 0.0
2016-Aug-25 20:33N 40°39' W 074°03'0 0.1
2016-Aug-25 19:30N 40°39' W 074°03'0 0.0
2016-Aug-25 18:33N 40°39' W 074°03'0 0.0
2016-Aug-25 17:33N 40°39' W 074°03'0 0.0
2016-Aug-25 16:33N 40°39' W 074°03'0 0.0
2016-Aug-25 15:33N 40°39' W 074°03'0 0.1
2016-Aug-25 14:33N 40°39' W 074°03'0 0.1
2016-Aug-25 13:33N 40°39' W 074°03'0 0.0
2016-Aug-25 12:33N 40°39' W 074°03'0 0.0
2016-Aug-25 11:33N 40°39' W 074°03'0 0.0
2016-Aug-25 10:30N 40°39' W 074°03'0 0.1
2016-Aug-25 09:33N 40°39' W 074°03'0 0.1
2016-Aug-25 08:27N 40°39' W 074°03'0 0.1
2016-Aug-25 07:33N 40°39' W 074°03'0 0.0
2016-Aug-25 06:33N 40°39' W 074°03'0 0.0
2016-Aug-25 04:33N 40°39' W 074°03'0 0.0
2016-Aug-25 03:33N 40°39' W 074°03'4 4.3
2016-Aug-25 02:34N 40°42' W 073°59'5 0.3
2016-Aug-24 07:15N 40°47' W 073°55'3 5.0
2016-Aug-24 06:33N 40°44' W 073°58'5 2.6
2016-Aug-24 04:33N 40°40' W 074°02'0 0.0
2016-Aug-24 03:33N 40°40' W 074°02'0 0.0
2016-Aug-24 02:33N 40°40' W 074°02'0 0.1
2016-Aug-24 01:33N 40°40' W 074°02'2 1.7
2016-Aug-24 00:33N 40°39' W 074°04'4 0.2
2016-Aug-22 23:31N 40°39' W 074°10'0 0.3
2016-Aug-22 22:18N 40°39' W 074°10'4 5.5
2016-Aug-22 21:30N 40°40' W 074°04'0 0.0
2016-Aug-22 20:33N 40°40' W 074°04'0 0.0
2016-Aug-22 19:33N 40°40' W 074°04'0 0.0
2016-Aug-22 18:33N 40°40' W 074°04'0 0.0
2016-Aug-22 17:33N 40°40' W 074°04'1 0.6
2016-Aug-22 16:33N 40°39' W 074°04'4 4.2
2016-Aug-22 15:33N 40°38' W 074°10'0 0.0
2016-Aug-22 14:33N 40°38' W 074°10'0 0.0
2016-Aug-22 13:32N 40°39' W 074°10'0 0.0
2016-Aug-22 08:19N 40°39' W 074°10'0 0.0
2016-Aug-22 07:33N 40°39' W 074°10'0 0.0
2016-Aug-22 06:20N 40°39' W 074°10'0 0.0
2016-Aug-22 05:25N 40°39' W 074°10'0 0.0
2016-Aug-22 04:22N 40°39' W 074°10'4 5.1
2016-Aug-22 03:30N 40°40' W 074°04'0 0.0
2016-Aug-22 02:30N 40°40' W 074°04'0 0.0
2016-Aug-22 01:33N 40°40' W 074°04'0 0.0
2016-Aug-22 00:30N 40°40' W 074°04'0 0.0
2016-Aug-21 23:33N 40°40' W 074°04'0 0.0
2016-Aug-21 22:33N 40°40' W 074°04'1 0.7
2016-Aug-21 20:32N 40°39' W 074°06'3 0.5
2016-Aug-21 14:18N 40°39' W 074°10'0 0.0
2016-Aug-21 02:27N 40°39' W 074°10'1 0.6
2016-Aug-21 01:33N 40°39' W 074°09'1 0.5
2016-Aug-21 00:24N 40°38' W 074°10'0 0.0
2016-Aug-20 23:33N 40°38' W 074°10'0 0.0
2016-Aug-20 22:33N 40°38' W 074°10'0 0.0
2016-Aug-20 21:21N 40°38' W 074°10'0 0.0
2016-Aug-20 20:21N 40°38' W 074°10'0 0.0
2016-Aug-20 19:21N 40°38' W 074°10'0 0.0
2016-Aug-20 18:27N 40°38' W 074°10'0 0.0
2016-Aug-20 17:33N 40°38' W 074°10'0 0.0
2016-Aug-20 16:33N 40°38' W 074°10'0 0.0
2016-Aug-20 13:06N 40°38' W 074°10'0 0.0
2016-Aug-20 09:33N 40°38' W 074°10'0 0.0
2016-Aug-20 08:33N 40°38' W 074°10'0 0.0
2016-Aug-20 07:33N 40°38' W 074°10'0 0.0
2016-Aug-20 06:33N 40°38' W 074°10'0 0.0
2016-Aug-20 05:27N 40°38' W 074°10'0 0.0
2016-Aug-20 04:27N 40°38' W 074°10'0 0.0
2016-Aug-20 03:30N 40°38' W 074°10'0 0.0
2016-Aug-20 02:12N 40°38' W 074°10'0 0.0
2016-Aug-20 01:15N 40°38' W 074°10'0 0.0
2016-Aug-20 00:33N 40°38' W 074°10'0 0.0
2016-Aug-19 23:33N 40°38' W 074°10'0 0.0
2016-Aug-19 22:33N 40°38' W 074°10'0 0.4
2016-Aug-19 21:33N 40°39' W 074°10'2 0.6
2016-Aug-19 17:22N 40°37' W 074°12'3 0.9
2016-Aug-19 14:30N 40°38' W 074°10'3 2.9
2016-Aug-19 13:32N 40°39' W 074°06'0 0.3
2016-Aug-19 12:31N 40°39' W 074°06'0 0.0
2016-Aug-19 11:31N 40°39' W 074°06'0 0.0
2016-Aug-19 10:31N 40°39' W 074°06'0 0.3
2016-Aug-19 09:32N 40°39' W 074°06'0 0.3
2016-Aug-19 08:32N 40°39' W 074°06'0 0.0
2016-Aug-19 07:14N 40°39' W 074°06'0 0.0
2016-Aug-19 03:33N 40°39' W 074°06'0 0.0
2016-Aug-19 01:11N 40°39' W 074°06'0 0.1
2016-Aug-19 00:34N 40°39' W 074°06'0 0.2
2016-Aug-18 23:24N 40°39' W 074°06'3 3.3
2016-Aug-18 22:33N 40°39' W 074°02'0 0.2
2016-Aug-18 21:33N 40°40' W 074°02'0 0.2
2016-Aug-18 20:33N 40°39' W 074°02'0 0.0
2016-Aug-18 19:33N 40°39' W 074°02'0 0.0
2016-Aug-18 18:33N 40°39' W 074°02'0 0.0
2016-Aug-18 17:33N 40°39' W 074°02'1 1.4
2016-Aug-18 16:33N 40°39' W 074°04'6 0.5
2016-Aug-18 02:12N 40°37' W 074°12'4 6.2
2016-Aug-18 01:33N 40°39' W 074°08'6 6.0
2016-Aug-18 00:34N 40°42' W 074°02'  

Dump ship's entire track history